Tiempo atmosférico en la estación meteorológica de Barbate, Cádiz (4 m.)



Fecha
DESCASC
Temp. máxima en grados centígrados (hora)
DESCASC
Temp. mínima en grados centígrados (hora)
DESCASC
Temp. media en grados centígrados
DESCASC
Racha de viento máxima en m/sg (hora)
DESCASC
Velocidad máxima media en intervalos de 10 minutos(hora)
DESCASC
Precipitaciones diarias en mm
DESCASC
Precipitaciones de 00:00 a 06:00 en mm
DESCASC
Precipitaciones de 06:00 a 12:00 en mm
DESCASC
Precipitaciones de 12:00 a 18:00 en mm
DESCASC
Precipitaciones de 18:00 a 24:00 en mm
DESCASC
06-07-2020 31.4 (16:50) 22.3 (06:20) 26.8 8.89 (01:50) 6.94 (09:30) 0 0 0 0 0
05-07-2020 32.8 (18:10) 23.1 (07:20) 27.9 19.17 (16:40) 12.22 (14:30) 0 0 0 0 0
04-07-2020 31.7 (15:50) 18 (03:30) 24.9 13.06 (16:50) 8.61 (14:00) 0 0 0 0 0
03-07-2020 26.5 (19:50) 18.3 (07:30) 22.4 11.11 (15:10) 9.17 (15:10) 0 0 0 0 0
02-07-2020 29.1 (16:40) 19.7 (00:00) 24.4 10.56 (15:20) 9.17 (15:40) 0 0 0 0 0
01-07-2020 27.4 (18:10) 20.7 (00:00) 24.1 8.89 (16:40) 7.5 (15:30) 0 0 0 0 0
30-06-2020 25.5 (16:10) 21 (00:00) 23.3 7.5 (10:00) 5.83 (10:20) 0 0 0 0 0
29-06-2020 35.4 (16:10) 18.6 (00:00) 27 9.17 (16:00) 5.83 (20:50) 0 0 0 0 0
28-06-2020 29.9 (19:30) 19.9 (00:00) 24.9 5.56 (18:10) 4.72 (16:50) 0 0 0 0 0
27-06-2020 27.9 (19:10) 15.7 (00:00) 21.8 8.89 (16:10) 7.22 (16:10) 0 0 0 0 0
26-06-2020 24.6 (14:20) 19.6 (00:00) 22.1 9.17 (18:40) 7.5 (18:00) 0 0 0 0 0
25-06-2020 25.4 (14:20) 20.2 (00:00) 22.8 10 (01:30) 8.33 (01:30) 0 0 0 0 0
24-06-2020 30.8 (18:30) 21.2 (00:00) 26 11.67 (16:00) 8.89 (16:00) 0 0 0 0 0
23-06-2020 30.7 (14:40) 24.4 (00:00) 27.6 24.72 (07:40) 16.11 (07:40) 0 0 0 0 0
22-06-2020 32.1 (15:30) 18.5 (00:00) 25.3 20.28 (14:40) 13.06 (16:20) 0 0 0 0 0
21-06-2020 26.6 (19:20) 16.4 (00:00) 21.5 8.89 (17:30) 6.67 (15:10) 0 0 0 0 0
20-06-2020 28.5 (20:30) 14.5 (00:00) 21.5 8.06 (17:10) 6.94 (17:10) 0 0 0 0 0
19-06-2020 25.6 (19:40) 18.5 (00:00) 22.1 9.44 (17:30) 7.78 (16:50) 0 0 0 0 0
18-06-2020 23.4 (15:10) 15.2 (00:00) 19.3 9.17 (13:10) 8.06 (16:40) 0 0 0 0 0
17-06-2020 27.1 (18:50) 18.2 (00:00) 22.7 10.56 (14:00) 9.17 (14:00) 0 0 0 0 0
16-06-2020 23.6 (14:20) 16.8 (00:00) 20.2 12.5 (14:40) 9.72 (17:30) 0 0 0 0 0
15-06-2020 25.1 (18:10) 13.6 (00:00) 19.4 9.72 (16:10) 8.33 (16:20) 0 0 0 0 0
14-06-2020 22.1 (20:20) 14.1 (00:00) 18.1 11.39 (16:10) 9.44 (16:00) 0 0 0 0 0
13-06-2020 23 (19:00) 16 (00:00) 19.5 10.56 (16:20) 8.89 (15:20) 0 0 0 0 0
12-06-2020 22 (14:00) 16.2 (00:00) 19.1 15.56 (05:10) 9.72 (00:40) 1.6 1.2 0.4 0 0
11-06-2020 21.1 (14:40) 18.2 (00:00) 19.7 13.89 (22:50) 10.28 (21:50) 0 0 0 0 0
10-06-2020 -- (--) -- (--) -- 8.33 (17:50) 6.67 (17:30) -- 0 0 -- 0

Gráficas

Temp. máximas Temp. mínimas Temp. medias Precipitaciones Rachas de viento máximas Velocidades máximas media en intervalos de 10 minutos

Datos horarios

Fecha y hora oficial Temperatura (ºC) Velocidad del viento (km/h) Dirección del viento Racha (km/h) Dirección de racha Precipitación (mm) Presión (hPa) Tendencia (hPa) Humedad (%)
2020-07-09 23:00:00 20.4 0 Calma 12 Oeste 0 -- -- 80
2020-07-09 22:00:00 21 11 Oeste 16 Sudoeste 0 -- -- 81
2020-07-09 21:00:00 22.3 13 Sudoeste 19 Sudoeste 0 -- -- 76
2020-07-09 20:00:00 22.8 17 Sudoeste 20 Sudoeste 0 -- -- 72
2020-07-09 19:00:00 23.3 18 Sudoeste 22 Oeste 0 -- -- 69
2020-07-09 18:00:00 23.6 19 Oeste 27 Sudoeste 0 -- -- 67
2020-07-09 17:00:00 23.6 24 Oeste 29 Oeste 0 -- -- 69
2020-07-09 16:00:00 24.3 18 Sudoeste 21 Sudoeste 0 -- -- 66
2020-07-09 15:00:00 25.3 14 Sudoeste 23 Oeste 0 -- -- 60
2020-07-09 14:00:00 24.3 15 Sudoeste 21 Sudoeste 0 -- -- 62
2020-07-09 13:00:00 23.7 15 Sudoeste 22 Sudoeste 0 -- -- 65
2020-07-09 12:00:00 23.7 14 Sudoeste 18 Oeste 0 -- -- 67
2020-07-09 11:00:00 22.3 11 Sudoeste 22 Sudoeste 0 -- -- 72
2020-07-09 10:00:00 22.6 13 Sudoeste 20 Sudoeste 0 -- -- 71
2020-07-09 09:00:00 21.1 12 Sudoeste 21 Sudoeste 0 -- -- 78
2020-07-09 08:00:00 20.7 13 Sudoeste 18 Sudoeste 0 -- -- 79
2020-07-09 07:00:00 20.6 16 Sudoeste 23 Sudoeste 0 -- -- 79
2020-07-09 06:00:00 20.6 17 Sudoeste 20 Sudoeste 0 -- -- 82
2020-07-09 05:00:00 20.6 13 Sudoeste 17 Sudoeste 0 -- -- 83
2020-07-09 04:00:00 20.6 13 Sudoeste 16 Sudoeste 0 -- -- 85
2020-07-09 03:00:00 20.8 12 Sudoeste 20 Sudoeste 0 -- -- 85
2020-07-09 02:00:00 21 16 Sudoeste 22 Sudoeste 0 -- -- 86
2020-07-09 01:00:00 21 12 Sur 14 Sur 0 -- -- 91
2020-07-09 00:00:00 21 13 Sur 14 Sur 0 -- -- 91
2020-07-08 23:00:00 21.3 9 Sudoeste 19 Sudoeste 0 -- -- 89
2020-07-08 22:00:00 21.8 16 Sudoeste 24 Oeste 0 -- -- 87
2020-07-08 21:00:00 23 18 Sudoeste 23 Oeste 0 -- -- 82
2020-07-08 20:00:00 24.1 19 Oeste 27 Oeste 0 -- -- 76
2020-07-08 19:00:00 24.3 26 Oeste 33 Oeste 0 -- -- 76
2020-07-08 18:00:00 24.3 29 Oeste 33 Oeste 0 -- -- 76
2020-07-08 17:00:00 25.3 25 Oeste 32 Oeste 0 -- -- 68
2020-07-08 16:00:00 25.1 24 Oeste 35 Oeste 0 -- -- 70
2020-07-08 15:00:00 25.4 24 Oeste 32 Oeste 0 -- -- 70
2020-07-08 14:00:00 26 20 Sudoeste 25 Sudoeste 0 -- -- 70
2020-07-08 13:00:00 27.3 16 Sudoeste 21 Oeste 0 -- -- 63
2020-07-08 12:00:00 26.9 15 Oeste 24 Oeste 0 -- -- 64
2020-07-08 11:00:00 25 17 Oeste 24 Oeste 0 -- -- 62
2020-07-08 10:00:00 25.7 6 Oeste 12 Sur 0 -- -- 54
2020-07-08 09:00:00 25.8 5 Norte 12 Norte 0 -- -- 36
2020-07-08 08:00:00 23.1 3 Norte 14 Este 0 -- -- 45
2020-07-08 07:00:00 23.5 6 Noroeste 24 Oeste 0 -- -- 47
2020-07-08 06:00:00 24.1 5 Oeste 30 Oeste 0 -- -- 58
2020-07-08 05:00:00 24.2 5 Norte 15 Noroeste 0 -- -- 40
2020-07-08 04:00:00 23.5 6 Norte 27 Oeste 0 -- -- 62
2020-07-08 03:00:00 23.5 16 Oeste 22 Oeste 0 -- -- 74
2020-07-08 02:00:00 26.1 6 Norte 12 Norte 0 -- -- 38
2020-07-08 01:00:00 26.4 8 Norte 14 Norte 0 -- -- 40
2020-07-08 00:00:00 25.6 2 Noroeste 8 Oeste 0 -- -- 64
2020-07-07 23:00:00 25.9 3 Noroeste 8 Oeste 0 -- -- 63
2020-07-07 22:00:00 26.2 7 Oeste 9 Oeste 0 -- -- 63
2020-07-07 21:00:00 28.1 4 Oeste 13 Oeste 0 -- -- 48
2020-07-07 20:00:00 27.6 11 Oeste 14 Oeste 0 -- -- 56
2020-07-07 19:00:00 28.4 11 Oeste 16 Oeste 0 -- -- 52
2020-07-07 18:00:00 29.3 8 Sudoeste 17 Sudoeste 0 -- -- 52
2020-07-07 17:00:00 28.9 10 Sudoeste 19 Sur 0 -- -- 54
2020-07-07 16:00:00 30.6 10 Sur 17 Sur 0 -- -- 47
2020-07-07 15:00:00 28.7 9 Oeste 16 Oeste 0 -- -- 49
2020-07-07 14:00:00 28.2 10 Sudoeste 15 Oeste 0 -- -- 54
2020-07-07 13:00:00 26.9 11 Sudoeste 18 Oeste 0 -- -- 61
2020-07-07 12:00:00 26.8 13 Sur 21 Sur 0 -- -- 65
2020-07-07 11:00:00 25.2 10 Sudoeste 13 Sudoeste 0 -- -- 65
2020-07-07 10:00:00 25.7 14 Sudoeste 18 Sudoeste 0 -- -- 55
2020-07-07 09:00:00 25 8 Norte 15 Norte 0 -- -- 36
2020-07-07 08:00:00 22 4 Norte 9 Norte 0 -- -- 61
2020-07-07 07:00:00 23.4 5 Norte 14 Norte 0 -- -- 36
2020-07-07 06:00:00 23.6 9 Norte 17 Norte 0 -- -- 35
2020-07-07 05:00:00 24.1 11 Norte 20 Norte 0 -- -- 33
2020-07-07 04:00:00 23.5 10 Norte 15 Noroeste 0 -- -- 33
2020-07-07 03:00:00 23.3 6 Norte 14 Norte 0 -- -- 39
2020-07-07 02:00:00 24.3 7 Norte 13 Norte 0 -- -- 39
2020-07-07 01:00:00 24.7 10 Noroeste 17 Norte 0 -- -- 35
2020-07-07 00:00:00 24.7 8 Norte 12 Norte 0 -- -- 45
2020-07-06 23:00:00 23.3 8 Norte 10 Sur 0 -- -- 83
2020-07-06 22:00:00 23.7 8 Sur 13 Sur 0 -- -- 83
2020-07-06 21:00:00 25 11 Sudoeste 16 Oeste 0 -- -- 78
2020-07-06 20:00:00 26.5 12 Oeste 21 Oeste 0 -- -- 63
2020-07-06 19:00:00 27.4 17 Oeste 23 Oeste 0 -- -- 50
2020-07-06 18:00:00 28.9 13 Oeste 15 Oeste 0 -- -- 44
2020-07-06 17:00:00 31 7 Sudoeste 19 Sudoeste 0 -- -- 34
2020-07-06 16:00:00 30.2 11 Sudoeste 17 Sudoeste 0 -- -- 39
2020-07-06 15:00:00 28.3 10 Sudoeste 17 Sudoeste 0 -- -- 50
2020-07-06 14:00:00 26.6 10 Oeste 17 Oeste 0 -- -- 62
2020-07-06 13:00:00 26.9 10 Sudoeste 17 Sur 0 -- -- 63
2020-07-06 12:00:00 27.7 11 Sur 24 Nordeste 0 -- -- 61
2020-07-06 11:00:00 29.9 15 Nordeste 23 Nordeste 0 -- -- 32
2020-07-06 10:00:00 27.8 19 Nordeste 32 Nordeste 0 -- -- 39
2020-07-06 09:00:00 24.8 14 Norte 22 Norte 0 -- -- 51
2020-07-06 08:00:00 23.3 13 Norte 26 Nordeste 0 -- -- 53
2020-07-06 07:00:00 22.9 14 Norte 26 Nordeste 0 -- -- 54
2020-07-06 06:00:00 22.4 13 Norte 22 Norte 0 -- -- 59
2020-07-06 05:00:00 22.9 11 Norte 18 Norte 0 -- -- 60
2020-07-06 04:00:00 23 13 Norte 32 Nordeste 0 -- -- 60
2020-07-06 03:00:00 23.8 9 Nordeste 26 Nordeste 0 -- -- 56
2020-07-06 02:00:00 24.5 15 Nordeste 32 Nordeste 0 -- -- 52
2020-07-06 01:00:00 24.5 12 Norte 31 Nordeste 0 -- -- 54
2020-07-06 00:00:00 24.5 16 Norte 35 Norte 0 -- -- 56
2020-07-05 23:00:00 25.4 16 Norte 36 Este 0 -- -- 55
2020-07-05 22:00:00 26.9 19 Este 45 Este 0 -- -- 47
2020-07-05 21:00:00 29.2 18 Este 46 Este 0 -- -- 41
2020-07-05 20:00:00 30.8 26 Este 47 Este 0 -- -- 40
2020-07-05 19:00:00 31.9 25 Este 45 Este 0 -- -- 40
2020-07-05 18:00:00 32.6 24 Este 48 Este 0 -- -- 38
2020-07-05 17:00:00 32.4 26 Este 69 Este 0 -- -- 40
2020-07-05 16:00:00 32 32 Este 62 Sudeste 0 -- -- 39
2020-07-05 15:00:00 31.8 37 Este 67 Este 0 -- -- 41
2020-07-05 14:00:00 31.2 38 Este 62 Este 0 -- -- 41
2020-07-05 13:00:00 30.2 35 Este 62 Sudeste 0 -- -- 44
2020-07-05 12:00:00 29.5 14 Norte 36 Este 0 -- -- 49
2020-07-05 11:00:00 28.2 14 Norte 32 Nordeste 0 -- -- 54
2020-07-05 10:00:00 27.1 16 Norte 36 Norte 0 -- -- 56
2020-07-05 09:00:00 25.5 14 Norte 25 Norte 0 -- -- 58
2020-07-05 08:00:00 23.8 5 Norte 21 Noroeste 0 -- -- 65
2020-07-05 07:00:00 23.5 8 Norte 35 Nordeste 0 -- -- 69
2020-07-05 06:00:00 25.4 17 Este 60 Nordeste 0 -- -- 55
2020-07-05 05:00:00 24.7 14 Nordeste 45 Este 0 -- -- 60
2020-07-05 04:00:00 24.7 27 Este 51 Este 0 -- -- 58
2020-07-05 03:00:00 24 12 Este 46 Este 0 -- -- 66
2020-07-05 02:00:00 23.8 26 Este 44 Este 0 -- -- 68
2020-07-05 01:00:00 24.3 28 Este 42 Este 0 -- -- 69
2020-07-05 00:00:00 24.8 28 Este 41 Este 0 -- -- 64
2020-07-04 23:00:00 24.8 19 Este 29 Este 0 -- -- 65
2020-07-04 22:00:00 25.7 14 Este 27 Sudeste 0 -- -- 63
2020-07-04 21:00:00 28.5 15 Sudeste 26 Sudeste 0 -- -- 53
2020-07-04 20:00:00 30.1 15 Este 44 Este 0 -- -- 46
2020-07-04 19:00:00 30.6 26 Este 40 Este 0 -- -- 45
2020-07-04 18:00:00 31.3 27 Este 45 Este 0 -- -- 44
2020-07-04 17:00:00 31.3 30 Este 47 Este 0 -- -- 44
2020-07-04 16:00:00 31.7 26 Este 44 Sudeste 0 -- -- 46
2020-07-04 15:00:00 31.2 28 Este 43 Este 0 -- -- 47
2020-07-04 14:00:00 30.3 31 Este 42 Este 0 -- -- 49
2020-07-04 13:00:00 29.8 29 Este 40 Sudeste 0 -- -- 53
2020-07-04 12:00:00 28.6 26 Este 39 Este 0 -- -- 57
2020-07-04 11:00:00 27.9 22 Este 34 Este 0 -- -- 60
2020-07-04 10:00:00 26.3 17 Este 30 Este 0 -- -- 67
2020-07-04 09:00:00 23.7 7 Nordeste 18 Este 0 -- -- 80
2020-07-04 08:00:00 19.9 6 Norte 12 Norte 0 -- -- 90
2020-07-04 07:00:00 19.2 4 Noroeste 10 Oeste 0 -- -- 97
2020-07-04 06:00:00 19.7 8 Sudoeste 10 Oeste 0 -- -- 94
2020-07-04 05:00:00 18.9 6 Oeste 9 Oeste 0 -- -- 88
2020-07-04 04:00:00 18.4 4 Norte 8 Norte 0 -- -- 81
2020-07-04 03:00:00 18.5 5 Norte 9 Norte 0 -- -- 82
2020-07-04 02:00:00 19.1 4 Norte 7 Nordeste 0 -- -- 80
2020-07-04 01:00:00 20.1 3 Este 7 Sudeste 0 -- -- 86
2020-07-04 00:00:00 20.7 3 Sur 6 Nordeste 0 -- -- 77
2020-07-03 23:00:00 21.4 4 Nordeste 7 Noroeste 0 -- -- 70
2020-07-03 22:00:00 23.3 3 Este 8 Oeste 0 -- -- 63
2020-07-03 21:00:00 25.1 6 Oeste 15 Sudoeste 0 -- -- 65
2020-07-03 20:00:00 26.4 11 Sudoeste 23 Oeste 0 -- -- 59
2020-07-03 19:00:00 24.4 20 Oeste 28 Oeste 0 -- -- 61
2020-07-03 18:00:00 23.1 24 Oeste 35 Oeste 0 -- -- 71
2020-07-03 17:00:00 22.4 29 Oeste 38 Sudoeste 0 -- -- 74
2020-07-03 16:00:00 22.5 28 Sudoeste 40 Oeste 0 -- -- 74
2020-07-03 15:00:00 22.7 32 Sudoeste 37 Sudoeste 0 -- -- 75
2020-07-03 14:00:00 23.5 23 Oeste 31 Oeste 0 -- -- 72
2020-07-03 13:00:00 23.5 22 Oeste 27 Oeste 0 -- -- 71
2020-07-03 12:00:00 23.1 17 Sudoeste 20 Sudoeste 0 -- -- 72
2020-07-03 11:00:00 22.4 15 Sudoeste 18 Sudoeste 0 -- -- 79
2020-07-03 10:00:00 21.8 4 Norte 10 Nordeste 0 -- -- 72
2020-07-03 09:00:00 19.5 5 Norte 9 Norte 0 -- -- 100
2020-07-03 08:00:00 18.6 5 Norte 10 Norte 0 -- -- 100
2020-07-03 07:00:00 18.6 5 Norte 9 Norte 0 -- -- 99
2020-07-03 06:00:00 19.2 4 Norte 9 Sudoeste 0 -- -- 95
2020-07-03 05:00:00 20.8 6 Sudoeste 13 Sudoeste 0 -- -- 95
2020-07-03 04:00:00 21 11 Sudoeste 19 Sudoeste 0 -- -- 95
2020-07-03 03:00:00 21.1 15 Sudoeste 21 Sur 0 -- -- 94
2020-07-03 02:00:00 21.3 18 Sudoeste 22 Sur 0 -- -- 94
2020-07-03 01:00:00 21.5 17 Sur 23 Sur 0 -- -- 93
2020-07-03 00:00:00 21.6 21 Sur 24 Sur 0 -- -- 91
2020-07-02 23:00:00 22.5 17 Sur 22 Sur 0 -- -- 86
2020-07-02 22:00:00 23.8 5 Este 13 Sur 0 -- -- 68
2020-07-02 21:00:00 25.8 10 Sur 23 Noroeste 0 -- -- 60
2020-07-02 20:00:00 26.5 18 Oeste 29 Sudoeste 0 -- -- 55
2020-07-02 19:00:00 24.2 26 Oeste 37 Oeste 0 -- -- 79
2020-07-02 18:00:00 24.5 30 Oeste 37 Oeste 0 -- -- 75
2020-07-02 17:00:00 27.2 22 Oeste 34 Oeste 0 -- -- 61
2020-07-02 16:00:00 23.5 30 Oeste 38 Sudoeste 0 -- -- 79
2020-07-02 15:00:00 23.6 30 Sudoeste 34 Sudoeste 0 -- -- 81
2020-07-02 14:00:00 24.2 21 Sudoeste 25 Sudoeste 0 -- -- 79
2020-07-02 13:00:00 23.7 20 Sudoeste 24 Sudoeste 0 -- -- 80
2020-07-02 12:00:00 23.8 15 Sudoeste 23 Sudoeste 0 -- -- 82
2020-07-02 11:00:00 22.9 19 Sudoeste 24 Sudoeste 0 -- -- 87
2020-07-02 10:00:00 22.4 15 Sudoeste 23 Sudoeste 0 -- -- 89
2020-07-02 09:00:00 21.4 10 Sudoeste 19 Sudoeste 0 -- -- 93
2020-07-02 08:00:00 21.2 14 Sudoeste 20 Sudoeste 0 -- -- 93
2020-07-02 07:00:00 21 14 Sudoeste 18 Sudoeste 0 -- -- 93
2020-07-02 06:00:00 20.8 11 Sudoeste 14 Sudoeste 0 -- -- 94
2020-07-02 05:00:00 20 0 Calma 6 Norte 0 -- -- 94
2020-07-02 04:00:00 19.7 4 Nordeste 8 Norte 0 -- -- 94
2020-07-02 03:00:00 20.5 3 Oeste 9 Oeste 0 -- -- 93
2020-07-02 02:00:00 20.6 6 Oeste 13 Oeste 0 -- -- 93
2020-07-02 01:00:00 20.7 12 Oeste 16 Oeste 0 -- -- 93
2020-07-02 00:00:00 21.3 6 Oeste 10 Oeste 0 -- -- 85
2020-07-01 23:00:00 21.8 5 Noroeste 9 Noroeste 0 -- -- 78
2020-07-01 22:00:00 22.9 9 Oeste 12 Oeste 0 -- -- 73
2020-07-01 21:00:00 24 9 Oeste 23 Oeste 0 -- -- 74
2020-07-01 20:00:00 23.8 19 Oeste 22 Oeste 0 -- -- 79
2020-07-01 19:00:00 25.1 17 Oeste 23 Oeste 0 -- -- 71
2020-07-01 18:00:00 27.2 14 Oeste 24 Oeste 0 -- -- 60
2020-07-01 17:00:00 23.9 23 Oeste 32 Oeste 0 -- -- 78
2020-07-01 16:00:00 23.8 23 Sudoeste 32 Sudoeste 0 -- -- 77
2020-07-01 15:00:00 23.2 23 Sudoeste 28 Sudoeste 0 -- -- 78
2020-07-01 14:00:00 23.4 18 Sudoeste 22 Sudoeste 0 -- -- 75
2020-07-01 13:00:00 23.5 14 Sudoeste 18 Sudoeste 0 -- -- 73
2020-07-01 12:00:00 23.4 10 Sudoeste 22 Sudoeste 0 -- -- 75
2020-07-01 11:00:00 22.2 15 Sudoeste 22 Sudoeste 0 -- -- 78
2020-07-01 10:00:00 21.5 13 Sudoeste 18 Sudoeste 0 -- -- 86
2020-07-01 09:00:00 20.9 14 Sudoeste 19 Sudoeste 0 -- -- 87
2020-07-01 08:00:00 20.7 12 Sudoeste 21 Sudoeste 0 -- -- 89
2020-07-01 07:00:00 20.9 13 Sudoeste 21 Sudoeste 0 -- -- 90
2020-07-01 06:00:00 21 14 Sudoeste 20 Sudoeste 0 -- -- 91
2020-07-01 05:00:00 21.1 9 Sudoeste 15 Sudoeste 0 -- -- 91
2020-07-01 04:00:00 21.2 9 Sudoeste 14 Sudoeste 0 -- -- 92
2020-07-01 03:00:00 21.3 10 Sudoeste 15 Sudoeste 0 -- -- 92
2020-07-01 02:00:00 21.6 11 Sudoeste 18 Sudoeste 0 -- -- 92
2020-07-01 01:00:00 21.7 12 Sudoeste 16 Sudoeste 0 -- -- 95
2020-07-01 00:00:00 21.6 11 Sur 15 Sudoeste 0 -- -- 95
2020-06-30 23:00:00 21.5 13 Sudoeste 17 Sudoeste 0 -- -- 95
2020-06-30 22:00:00 21.9 14 Sudoeste 20 Sudoeste 0 -- -- 92
2020-06-30 21:00:00 23.4 15 Oeste 18 Sudoeste 0 -- -- 84
2020-06-30 20:00:00 24.3 14 Sudoeste 18 Sudoeste 0 -- -- 82
2020-06-30 19:00:00 25 13 Sudoeste 18 Sudoeste 0 -- -- 79
2020-06-30 18:00:00 25 15 Sudoeste 22 Sudoeste 0 -- -- 78
2020-06-30 17:00:00 25.3 18 Sudoeste 21 Sudoeste 0 -- -- 77
2020-06-30 16:00:00 25.4 18 Sudoeste 22 Sudoeste 0 -- -- 76
2020-06-30 15:00:00 25.2 18 Sudoeste 23 Sudoeste 0 -- -- 75
2020-06-30 14:00:00 25.1 17 Sudoeste 20 Sudoeste 0 -- -- 75
2020-06-30 13:00:00 25 14 Sur 17 Sur 0 -- -- 75
2020-06-30 12:00:00 24.2 15 Sur 22 Sur 0 -- -- 79
2020-06-30 11:00:00 23.2 17 Sudoeste 24 Sur 0 -- -- 82
2020-06-30 10:00:00 23 20 Sur 27 Sur 0 -- -- 82
2020-06-30 09:00:00 22.4 9 Sur 14 Sur 0 -- -- 84
2020-06-30 08:00:00 21.3 3 Sudeste 10 Sur 0 -- -- 81
2020-06-30 07:00:00 21.4 5 Sudoeste 13 Oeste 0 -- -- 82
2020-06-30 06:00:00 21.6 9 Oeste 18 Oeste 0 -- -- 82
2020-06-30 05:00:00 22.2 13 Oeste 19 Oeste 0 -- -- 72
2020-06-30 04:00:00 22.8 5 Norte 22 Nordeste 0 -- -- 52
2020-06-30 03:00:00 24.7 17 Este 26 Este 0 -- -- 42
2020-06-30 02:00:00 23.9 10 Este 21 Este 0 -- -- 47
2020-06-30 01:00:00 23.2 11 Este 16 Nordeste 0 -- -- 50
2020-06-30 00:00:00 24 8 Sudeste 22 Este 0 -- -- 65
2020-06-29 23:00:00 24.7 6 Este 19 Este 0 -- -- 42
2020-06-29 22:00:00 26.1 5 Oeste 27 Este 0 -- -- 56
2020-06-29 21:00:00 29.7 20 Este 30 Nordeste 0 -- -- 29
2020-06-29 20:00:00 32.6 12 Este 28 Este 0 -- -- 26
2020-06-29 19:00:00 34.4 10 Este 30 Este 0 -- -- 24
2020-06-29 18:00:00 34.7 13 Este 24 Este 0 -- -- 23
2020-06-29 17:00:00 35.1 15 Este 30 Sudeste 0 -- -- 19
2020-06-29 16:00:00 35 20 Este 33 Este 0 -- -- 18
2020-06-29 15:00:00 27.8 13 Oeste 18 Oeste 0 -- -- 51
2020-06-29 14:00:00 26.3 13 Oeste 19 Oeste 0 -- -- 55
2020-06-29 13:00:00 24.7 16 Oeste 19 Oeste 0 -- -- 65
2020-06-29 12:00:00 24.3 14 Oeste 17 Oeste 0 -- -- 64
2020-06-29 11:00:00 23.5 12 Oeste 14 Oeste 0 -- -- 67
2020-06-29 10:00:00 24.8 5 Sudoeste 9 Norte 0 -- -- 69
2020-06-29 09:00:00 22.1 4 Norte 9 Norte 0 -- -- 72
2020-06-29 08:00:00 19.4 6 Norte 8 Norte 0 -- -- 78
2020-06-29 07:00:00 19.2 6 Norte 10 Norte 0 -- -- 78
2020-06-29 06:00:00 21.2 5 Noroeste 14 Oeste 0 -- -- 69
2020-06-29 05:00:00 21.4 6 Oeste 15 Nordeste 0 -- -- 82
2020-06-29 04:00:00 21.1 7 Norte 15 Norte 0 -- -- 71
2020-06-29 03:00:00 21 4 Norte 9 Norte 0 -- -- 78
2020-06-29 02:00:00 21.9 7 Oeste 10 Oeste 0 -- -- 82
2020-06-29 01:00:00 22.1 9 Sudoeste 11 Sudoeste 0 -- -- 85
2020-06-29 00:00:00 22.2 0 Calma 8 Sudoeste 0 -- -- 81
2020-06-28 23:00:00 22.7 6 Sur 16 Sudeste 0 -- -- 84
2020-06-28 22:00:00 23.1 13 Sudeste 18 Sudeste 0 -- -- 83
2020-06-28 21:00:00 26 13 Sur 17 Sur 0 -- -- 66
2020-06-28 20:00:00 28.5 4 Sudoeste 14 Sur 0 -- -- 62
2020-06-28 19:00:00 28.8 9 Oeste 20 Oeste 0 -- -- 53
2020-06-28 18:00:00 25.1 15 Sudoeste 20 Sudoeste 0 -- -- 78
2020-06-28 17:00:00 25.1 17 Sudoeste 19 Sudoeste 0 -- -- 80
2020-06-28 16:00:00 24.3 15 Sudoeste 17 Sudoeste 0 -- -- 80
2020-06-28 15:00:00 23.9 15 Sudoeste 18 Oeste 0 -- -- 80
2020-06-28 14:00:00 24.6 13 Sudoeste 16 Sudoeste 0 -- -- 76
2020-06-28 13:00:00 24.1 11 Sudoeste 18 Sudoeste 0 -- -- 80
2020-06-28 12:00:00 22 17 Sudoeste 19 Sudoeste 0 -- -- 88
2020-06-28 11:00:00 21.8 7 Sur 14 Sur 0 -- -- 89
2020-06-28 10:00:00 21.8 10 Sur 14 Sudoeste 0 -- -- 87
2020-06-28 09:00:00 21 9 Sur 13 Sur 0 -- -- 92
2020-06-28 08:00:00 20.4 7 Sur 10 Sur 0 -- -- 94
2020-06-28 07:00:00 20.3 8 Sur 17 Sudoeste 0 -- -- 95
2020-06-28 06:00:00 20.4 12 Sudoeste 15 Sudoeste 0 -- -- 95
2020-06-28 05:00:00 20.5 8 Sudoeste 12 Sudoeste 0 -- -- 95
2020-06-28 04:00:00 19.9 7 Oeste 11 Sudoeste 0 -- -- 88
2020-06-28 03:00:00 19.9 0 Calma 3 Sudoeste 0 -- -- 84
2020-06-28 02:00:00 20.7 0 Calma 4 Nordeste 0 -- -- 81
2020-06-28 01:00:00 20.8 2 Nordeste 9 Nordeste 0 -- -- 79
2020-06-28 00:00:00 21.1 7 Nordeste 9 Norte 0 -- -- 75
2020-06-27 23:00:00 22.4 4 Norte 13 Noroeste 0 -- -- 66
2020-06-27 22:00:00 23 10 Noroeste 18 Noroeste 0 -- -- 64
2020-06-27 21:00:00 25.6 10 Noroeste 22 Noroeste 0 -- -- 59
2020-06-27 20:00:00 26.7 13 Noroeste 23 Noroeste 0 -- -- 55
2020-06-27 19:00:00 27.6 14 Noroeste 28 Sudoeste 0 -- -- 51
2020-06-27 18:00:00 23.7 23 Oeste 29 Sudoeste 0 -- -- 74
2020-06-27 17:00:00 23.4 25 Sudoeste 32 Oeste 0 -- -- 75
2020-06-27 16:00:00 23.2 25 Oeste 30 Oeste 0 -- -- 77
2020-06-27 15:00:00 23.3 20 Sudoeste 23 Sudoeste 0 -- -- 76
2020-06-27 14:00:00 23.3 15 Sudoeste 18 Sudoeste 0 -- -- 76
2020-06-27 13:00:00 22.8 17 Sudoeste 25 Sudoeste 0 -- -- 79
2020-06-27 12:00:00 22.6 19 Sudoeste 27 Sudoeste 0 -- -- 78
2020-06-27 11:00:00 21.5 21 Sudoeste 27 Sudoeste 0 -- -- 83
2020-06-27 10:00:00 21 23 Sudoeste 28 Sudoeste 0 -- -- 85
2020-06-27 09:00:00 20.6 23 Sudoeste 27 Sudoeste 0 -- -- 89
2020-06-27 08:00:00 20 19 Sudoeste 23 Sudoeste 0 -- -- 92
2020-06-27 07:00:00 16 3 Norte 10 Norte 0 -- -- 95
2020-06-27 06:00:00 15.8 6 Norte 8 Norte 0 -- -- 95
2020-06-27 05:00:00 16.1 5 Norte 8 Norte 0 -- -- 94
2020-06-27 04:00:00 16.4 2 Norte 6 Norte 0 -- -- 93
2020-06-27 03:00:00 17.3 2 Nordeste 6 Norte 0 -- -- 91
2020-06-27 02:00:00 18.9 4 Oeste 9 Sudoeste 0 -- -- 85
2020-06-27 01:00:00 19.2 0 Calma 4 Oeste 0 -- -- 89
2020-06-27 00:00:00 19.6 3 Oeste 10 Oeste 0 -- -- 87
2020-06-26 23:00:00 19.9 9 Oeste 19 Oeste 0 -- -- 84
2020-06-26 22:00:00 20.3 9 Oeste 24 Oeste 0 -- -- 83
2020-06-26 21:00:00 21.4 21 Oeste 28 Oeste 0 -- -- 80
2020-06-26 20:00:00 23.5 13 Oeste 26 Oeste 0 -- -- 66
2020-06-26 19:00:00 24.3 15 Oeste 33 Oeste 0 -- -- 64
2020-06-26 18:00:00 22.3 27 Sudoeste 32 Sudoeste 0 -- -- 79
2020-06-26 17:00:00 23.2 23 Oeste 27 Oeste 0 -- -- 74
2020-06-26 16:00:00 23.6 15 Oeste 19 Sudoeste 0 -- -- 75
2020-06-26 15:00:00 23.8 16 Sudoeste 20 Sudoeste 0 -- -- 76
2020-06-26 14:00:00 24 14 Sudoeste 19 Sudoeste 0 -- -- 73
2020-06-26 13:00:00 23.2 16 Sudoeste 20 Sudoeste 0 -- -- 74
2020-06-26 12:00:00 22.5 16 Sudoeste 23 Oeste 0 -- -- 78
2020-06-26 11:00:00 22.1 19 Sudoeste 24 Sudoeste 0 -- -- 80
2020-06-26 10:00:00 21.4 14 Sudoeste 18 Sudoeste 0 -- -- 82
2020-06-26 09:00:00 20.9 14 Sudoeste 25 Oeste 0 -- -- 85
2020-06-26 08:00:00 20.6 18 Oeste 22 Oeste 0 -- -- 86
2020-06-26 07:00:00 20.6 13 Oeste 20 Oeste 0 -- -- 89
2020-06-26 06:00:00 21 14 Sudoeste 20 Sudoeste 0 -- -- 88
2020-06-26 05:00:00 21.1 17 Sudoeste 21 Sudoeste 0 -- -- 86
2020-06-26 04:00:00 21.2 15 Sur 18 Sur 0 -- -- 87
2020-06-26 03:00:00 21.3 11 Sur 13 Sur 0 -- -- 89
2020-06-26 02:00:00 21.2 8 Sur 9 Sudoeste 0 -- -- 88
2020-06-26 01:00:00 21.1 9 Sudoeste 10 Sudoeste 0 -- -- 88
2020-06-26 00:00:00 21.1 8 Sudoeste 13 Sur 0 -- -- 88
2020-06-25 23:00:00 20.9 6 Sudoeste 9 Sudoeste 0 -- -- 88
2020-06-25 22:00:00 21.4 6 Sudoeste 13 Sudoeste 0 -- -- 86
2020-06-25 21:00:00 22.6 12 Sudoeste 17 Oeste 0 -- -- 79
2020-06-25 20:00:00 23.4 13 Oeste 17 Oeste 0 -- -- 76
2020-06-25 19:00:00 24.1 14 Sudoeste 18 Sudoeste 0 -- -- 74
2020-06-25 18:00:00 24.2 14 Sudoeste 24 Oeste 0 -- -- 70
2020-06-25 17:00:00 23.7 22 Oeste 28 Oeste 0 -- -- 72
2020-06-25 16:00:00 24.1 20 Sudoeste 23 Sudoeste 0 -- -- 76
2020-06-25 15:00:00 25.2 15 Sudoeste 18 Sudoeste 0 -- -- 71
2020-06-25 14:00:00 25.1 14 Sudoeste 19 Sudoeste 0 -- -- 72
2020-06-25 13:00:00 24.5 12 Sudoeste 22 Sudoeste 0 -- -- 73
2020-06-25 12:00:00 23.4 19 Sudoeste 23 Sur 0 -- -- 76
2020-06-25 11:00:00 22.2 18 Sudoeste 21 Sudoeste 0 -- -- 80
2020-06-25 10:00:00 22 10 Sudoeste 15 Sudoeste 0 -- -- 82
2020-06-25 09:00:00 21.6 8 Sur 12 Sur 0 -- -- 87
2020-06-25 08:00:00 20.7 8 Sur 17 Sudeste 0 -- -- 90
2020-06-25 07:00:00 20.2 15 Sur 22 Sur 0 -- -- 93
2020-06-25 06:00:00 20.4 16 Sur 22 Sur 0 -- -- 94
2020-06-25 05:00:00 20.5 9 Sudeste 21 Sur 0 -- -- 92
2020-06-25 04:00:00 20.7 17 Sur 21 Sur 0 -- -- 91
2020-06-25 03:00:00 21.2 17 Sur 32 Sudeste 0 -- -- 85
2020-06-25 02:00:00 21.1 28 Sudeste 36 Sudeste 0 -- -- 88
2020-06-25 01:00:00 21.5 20 Sudeste 29 Sur 0 -- -- 84
2020-06-25 00:00:00 22.1 3 Noroeste 13 Sur 0 -- -- 75
2020-06-24 23:00:00 22.2 8 Sur 12 Oeste 0 -- -- 76
2020-06-24 22:00:00 23 8 Oeste 14 Oeste 0 -- -- 73
2020-06-24 21:00:00 26.4 3 Sudoeste 20 Este 0 -- -- 58
2020-06-24 20:00:00 29.7 15 Este 34 Nordeste 0 -- -- 36
2020-06-24 19:00:00 30.2 20 Este 35 Este 0 -- -- 36
2020-06-24 18:00:00 30.5 21 Este 36 Este 0 -- -- 36
2020-06-24 17:00:00 27.1 21 Sudeste 39 Sudeste 0 -- -- 60
2020-06-24 16:00:00 25.9 32 Sur 42 Sur 0 -- -- 64
2020-06-24 15:00:00 25 31 Sur 35 Sur 0 -- -- 69
2020-06-24 14:00:00 24.8 24 Sudoeste 35 Sur 0 -- -- 67
2020-06-24 13:00:00 24.1 27 Sudoeste 42 Sur 0 -- -- 72
2020-06-24 12:00:00 23.5 26 Sudoeste 33 Sur 0 -- -- 73
2020-06-24 11:00:00 23.6 25 Sur 32 Sur 0 -- -- 72
2020-06-24 10:00:00 23.1 27 Sur 32 Sur 0 -- -- 72
2020-06-24 09:00:00 23.4 3 Este 10 Sudeste 0 -- -- 68
2020-06-24 08:00:00 21.4 5 Noroeste 9 Oeste 0 -- -- 72
2020-06-24 07:00:00 21.4 8 Oeste 14 Sur 0 -- -- 78
2020-06-24 06:00:00 22 13 Sur 18 Sudeste 0 -- -- 71
2020-06-24 05:00:00 22.3 5 Sudeste 10 Este 0 -- -- 65
2020-06-24 04:00:00 23 8 Este 19 Este 0 -- -- 56
2020-06-24 03:00:00 23.3 17 Sur 25 Sur 0 -- -- 60
2020-06-24 02:00:00 24.4 12 Este 36 Este 0 -- -- 51
2020-06-24 01:00:00 24.7 23 Este 41 Este 0 -- -- 50
2020-06-24 00:00:00 24.9 22 Sudeste 45 Sudeste 0 -- -- 49
2020-06-23 23:00:00 25.2 30 Sudeste 61 Sudeste 0 -- -- 49
2020-06-23 22:00:00 25.7 46 Sudeste 69 Sudeste 0 -- -- 46
2020-06-23 21:00:00 27.7 24 Sudeste 45 Sudeste 0 -- -- 40
2020-06-23 20:00:00 30.2 18 Sudeste 57 Sudeste 0 -- -- 33
2020-06-23 19:00:00 30.2 32 Sudeste 51 Sudeste 0 -- -- 33
2020-06-23 18:00:00 30.4 27 Sudeste 47 Sudeste 0 -- -- 35
2020-06-23 17:00:00 30.3 22 Este 56 Este 0 -- -- 38
2020-06-23 16:00:00 30.4 31 Este 54 Sudeste 0 -- -- 38
2020-06-23 15:00:00 30.5 33 Este 59 Sudeste 0 -- -- 37
2020-06-23 14:00:00 30.2 31 Sudeste 66 Sudeste 0 -- -- 39
2020-06-23 13:00:00 29.5 32 Sudeste 64 Sudeste 0 -- -- 40
2020-06-23 12:00:00 28.7 36 Este 62 Este 0 -- -- 40
2020-06-23 11:00:00 28.1 30 Sudeste 63 Este 0 -- -- 40
2020-06-23 10:00:00 26.8 24 Este 64 Sudeste 0 -- -- 43
2020-06-23 09:00:00 25.7 39 Este 75 Sudeste 0 -- -- 44
2020-06-23 08:00:00 24.6 55 Sudeste 89 Sudeste 0 -- -- 46
2020-06-23 07:00:00 24.9 46 Sudeste 81 Sudeste 0 -- -- 43
2020-06-23 06:00:00 24.8 55 Sudeste 82 Sudeste 0 -- -- 46
2020-06-23 05:00:00 24.4 48 Este 80 Sudeste 0 -- -- 49
2020-06-23 04:00:00 24.8 40 Este 76 Sudeste 0 -- -- 49
2020-06-23 03:00:00 24.9 43 Este 70 Sudeste 0 -- -- 47
2020-06-23 02:00:00 24.6 37 Este 67 Este 0 -- -- 49
2020-06-23 01:00:00 24.4 44 Este 66 Este 0 -- -- 50
2020-06-23 00:00:00 24.7 39 Este 61 Este 0 -- -- 48
2020-06-22 23:00:00 24.8 25 Nordeste 53 Este 0 -- -- 49
2020-06-22 22:00:00 25 18 Nordeste 39 Nordeste 0 -- -- 46
2020-06-22 21:00:00 26.7 21 Nordeste 44 Este 0 -- -- 41
2020-06-22 20:00:00 29.1 21 Este 41 Sudeste 0 -- -- 32
2020-06-22 19:00:00 30.3 25 Este 57 Sudeste 0 -- -- 30
2020-06-22 18:00:00 30.8 35 Este 66 Sudeste 0 -- -- 31
2020-06-22 17:00:00 31.4 41 Sudeste 73 Este 0 -- -- 29
2020-06-22 16:00:00 32 45 Este 72 Sudeste 0 -- -- 26
2020-06-22 15:00:00 31.9 42 Este 73 Sudeste 0 -- -- 26
2020-06-22 14:00:00 31.7 33 Este 59 Sudeste 0 -- -- 26
2020-06-22 13:00:00 31.3 28 Este 49 Este 0 -- -- 29
2020-06-22 12:00:00 30.4 21 Este 45 Este 0 -- -- 32
2020-06-22 11:00:00 29.9 24 Este 44 Este 0 -- -- 31
2020-06-22 10:00:00 29.1 11 Nordeste 35 Nordeste 0 -- -- 32
2020-06-22 09:00:00 27.7 23 Nordeste 50 Este 0 -- -- 31
2020-06-22 08:00:00 22 6 Nordeste 23 Nordeste 0 -- -- 55
2020-06-22 07:00:00 21.5 10 Norte 17 Norte 0 -- -- 51
2020-06-22 06:00:00 22.1 12 Norte 23 Nordeste 0 -- -- 49
2020-06-22 05:00:00 20.8 10 Norte 18 Norte 0 -- -- 56
2020-06-22 04:00:00 19 10 Norte 13 Norte 0 -- -- 72
2020-06-22 03:00:00 19.2 8 Norte 13 Norte 0 -- -- 75
2020-06-22 02:00:00 20.6 5 Norte 9 Norte 0 -- -- 67
2020-06-22 01:00:00 21.8 3 Norte 7 Oeste 0 -- -- 77
2020-06-22 00:00:00 22 5 Oeste 10 Oeste 0 -- -- 76
2020-06-21 23:00:00 21.9 6 Oeste 13 Sur 0 -- -- 81
2020-06-21 22:00:00 22.4 13 Sur 20 Sur 0 -- -- 83
2020-06-21 21:00:00 26.2 7 Sur 14 Sudeste 0 -- -- 63
2020-06-21 20:00:00 26.2 13 Sur 19 Sudeste 0 -- -- 63
2020-06-21 19:00:00 25.9 18 Sudeste 27 Sudeste 0 -- -- 60
2020-06-21 18:00:00 25.1 21 Sur 32 Sur 0 -- -- 65
2020-06-21 17:00:00 24.8 19 Sur 29 Oeste 0 -- -- 67
2020-06-21 16:00:00 24.1 18 Oeste 28 Oeste 0 -- -- 70
2020-06-21 15:00:00 23.8 21 Oeste 28 Oeste 0 -- -- 74
2020-06-21 14:00:00 24.6 13 Sudoeste 15 Sudoeste 0 -- -- 68
2020-06-21 13:00:00 24.4 10 Sudoeste 13 Sudoeste 0 -- -- 65
2020-06-21 12:00:00 24.3 8 Sudoeste 10 Sudoeste 0 -- -- 71
2020-06-21 11:00:00 23.4 9 Sur 10 Sur 0 -- -- 73
2020-06-21 10:00:00 22.4 5 Sur 6 Sur 0 -- -- 70
2020-06-21 09:00:00 19.5 3 Norte 8 Norte 0 -- -- 72
2020-06-21 08:00:00 16.8 6 Norte 9 Norte 0 -- -- 79
2020-06-21 07:00:00 16.6 9 Norte 11 Norte 0 -- -- 79
2020-06-21 06:00:00 16.9 7 Norte 9 Norte 0 -- -- 79
2020-06-21 05:00:00 17.4 5 Nordeste 9 Norte 0 -- -- 75
2020-06-21 04:00:00 18.3 4 Norte 13 Norte 0 -- -- 65
2020-06-21 03:00:00 18.9 8 Norte 10 Norte 0 -- -- 68
2020-06-21 02:00:00 20.3 4 Norte 6 Norte 0 -- -- 64
2020-06-21 01:00:00 21.2 6 Nordeste 8 Nordeste 0 -- -- 61
2020-06-21 00:00:00 21.8 5 Norte 10 Norte 0 -- -- 60
2020-06-20 23:00:00 22.7 4 Nordeste 6 Nordeste 0 -- -- 58
2020-06-20 22:00:00 25.4 2 Norte 12 Noroeste 0 -- -- 42
2020-06-20 21:00:00 27.9 9 Noroeste 18 Noroeste 0 -- -- 34
2020-06-20 20:00:00 27.1 10 Sudoeste 23 Oeste 0 -- -- 49
2020-06-20 19:00:00 25.5 19 Oeste 24 Oeste 0 -- -- 57
2020-06-20 18:00:00 24.5 22 Oeste 29 Oeste 0 -- -- 61
2020-06-20 17:00:00 24.7 22 Oeste 28 Oeste 0 -- -- 61
2020-06-20 16:00:00 24 23 Oeste 27 Oeste 0 -- -- 67
2020-06-20 15:00:00 25 17 Sur 23 Sur 0 -- -- 61
2020-06-20 14:00:00 24.9 9 Sudoeste 16 Sudoeste 0 -- -- 61
2020-06-20 13:00:00 24.1 10 Sudoeste 14 Sur 0 -- -- 62
2020-06-20 12:00:00 24.9 12 Sur 15 Sur 0 -- -- 61
2020-06-20 11:00:00 25.3 9 Norte 17 Nordeste 0 -- -- 52
2020-06-20 10:00:00 21.7 10 Norte 17 Norte 0 -- -- 65
2020-06-20 09:00:00 18 9 Norte 14 Norte 0 -- -- 78
2020-06-20 08:00:00 15 6 Norte 13 Norte 0 -- -- 89
2020-06-20 07:00:00 14.6 7 Norte 12 Norte 0 -- -- 88
2020-06-20 06:00:00 15.3 8 Norte 13 Norte 0 -- -- 85
2020-06-20 05:00:00 15.5 7 Norte 11 Norte 0 -- -- 86
2020-06-20 04:00:00 15.7 6 Norte 11 Nordeste 0 -- -- 81
2020-06-20 03:00:00 16.7 4 Norte 8 Norte 0 -- -- 75
2020-06-20 02:00:00 17.7 4 Norte 6 Norte 0 -- -- 73
2020-06-20 01:00:00 18.1 2 Norte 10 Nordeste 0 -- -- 73
2020-06-20 00:00:00 18.5 8 Nordeste 10 Nordeste 0 -- -- 68
2020-06-19 23:00:00 19.6 4 Nordeste 17 Noroeste 0 -- -- 65
2020-06-19 22:00:00 21 9 Norte 20 Noroeste 0 -- -- 61
2020-06-19 21:00:00 23.4 12 Noroeste 21 Noroeste 0 -- -- 54
2020-06-19 20:00:00 25.2 11 Noroeste 18 Noroeste 0 -- -- 49
2020-06-19 19:00:00 23 14 Oeste 28 Oeste 0 -- -- 63
2020-06-19 18:00:00 22.2 24 Oeste 34 Oeste 0 -- -- 67
2020-06-19 17:00:00 22 27 Oeste 33 Oeste 0 -- -- 68
2020-06-19 16:00:00 22.2 22 Oeste 27 Oeste 0 -- -- 68
2020-06-19 15:00:00 21.8 15 Oeste 18 Oeste 0 -- -- 68
2020-06-19 14:00:00 22.2 10 Oeste 13 Oeste 0 -- -- 67
2020-06-19 13:00:00 21.9 10 Oeste 14 Oeste 0 -- -- 68
2020-06-19 12:00:00 21.5 11 Oeste 26 Sudoeste 0 -- -- 70
2020-06-19 11:00:00 20.8 19 Sudoeste 24 Sudoeste 0 -- -- 78
2020-06-19 10:00:00 20.4 22 Sudoeste 26 Sudoeste 0 -- -- 81
2020-06-19 09:00:00 20 21 Sudoeste 28 Sudoeste 0 -- -- 83
2020-06-19 08:00:00 19.4 23 Sudoeste 28 Sudoeste 0 -- -- 85
2020-06-19 07:00:00 19.3 23 Sudoeste 30 Sudoeste 0 -- -- 87
2020-06-19 06:00:00 19.3 24 Sudoeste 29 Sudoeste 0 -- -- 86
2020-06-19 05:00:00 19.3 21 Sudoeste 28 Sudoeste 0 -- -- 87
2020-06-19 04:00:00 19.3 21 Sudoeste 26 Sudoeste 0 -- -- 87
2020-06-19 03:00:00 19.3 17 Sudoeste 23 Sudoeste 0 -- -- 86
2020-06-19 02:00:00 19.3 19 Sudoeste 22 Sudoeste 0 -- -- 85
2020-06-19 01:00:00 19.3 14 Sudoeste 17 Sudoeste 0 -- -- 84
2020-06-19 00:00:00 19.3 12 Sudoeste 15 Sudoeste 0 -- -- 83
2020-06-18 23:00:00 19.3 11 Sudoeste 15 Sudoeste 0 -- -- 83
2020-06-18 22:00:00 19.7 12 Sudoeste 23 Oeste 0 -- -- 79
2020-06-18 21:00:00 20.8 19 Oeste 27 Oeste 0 -- -- 72
2020-06-18 20:00:00 21.1 24 Oeste 32 Oeste 0 -- -- 71
2020-06-18 19:00:00 21.5 27 Oeste 32 Oeste 0 -- -- 69
2020-06-18 18:00:00 22.5 22 Oeste 31 Oeste 0 -- -- 62
2020-06-18 17:00:00 22 27 Oeste 33 Oeste 0 -- -- 67
2020-06-18 16:00:00 23 26 Oeste 32 Oeste 0 -- -- 56
2020-06-18 15:00:00 22.6 25 Oeste 31 Oeste 0 -- -- 63
2020-06-18 14:00:00 22.4 28 Oeste 33 Oeste 0 -- -- 66
2020-06-18 13:00:00 21.9 25 Oeste 32 Oeste 0 -- -- --
2020-06-18 12:00:00 21.4 19 Oeste 23 Oeste 0 -- -- --
2020-06-18 11:00:00 21.5 -- -- 12 Norte 0 -- -- --
2020-06-18 10:00:00 20.6 6 Sudoeste 8 Sur 0 -- -- --
2020-06-18 09:00:00 18.6 3 Nordeste 6 Norte 0 -- -- --
2020-06-18 08:00:00 15.5 4 Norte 9 Norte 0 -- -- --
2020-06-18 07:00:00 15.6 6 Norte 8 Norte 0 -- -- --
2020-06-18 06:00:00 16 4 Norte 6 Norte 0 -- -- --
2020-06-18 05:00:00 16 5 Nordeste 8 Nordeste 0 -- -- --
2020-06-18 04:00:00 16.8 5 Norte 8 Norte 0 -- -- --
2020-06-18 03:00:00 17.4 3 Nordeste 8 Noroeste 0 -- -- --
2020-06-18 02:00:00 18.3 5 Norte 6 Norte 0 -- -- --
2020-06-18 01:00:00 19.4 3 Sudoeste 6 Oeste 0 -- -- --
2020-06-18 00:00:00 19.7 3 Sudoeste 9 Noroeste 0 -- -- --
2020-06-17 23:00:00 20.1 5 Noroeste 13 Noroeste 0 -- -- --
2020-06-17 22:00:00 21.1 2 Este 15 Sudoeste 0 -- -- --
2020-06-17 21:00:00 23 9 Noroeste 25 Oeste 0 -- -- --
2020-06-17 20:00:00 24.8 14 Oeste 27 Oeste 0 -- -- --
2020-06-17 19:00:00 26.8 14 Oeste 31 Noroeste 0 -- -- --
2020-06-17 18:00:00 26.7 16 Noroeste 29 Oeste 0 -- -- --
2020-06-17 17:00:00 22.5 27 Oeste 36 Oeste 0 -- -- --
2020-06-17 16:00:00 22.2 26 Oeste 32 Sudoeste 0 -- -- --
2020-06-17 15:00:00 21.9 25 Oeste 36 Oeste 0 -- -- --
2020-06-17 14:00:00 21.9 33 Oeste 38 Oeste 0 -- -- --
2020-06-17 13:00:00 21.7 26 Oeste 31 Oeste 0 -- -- --
2020-06-17 12:00:00 21.4 22 Oeste 26 Oeste 0 -- -- --
2020-06-17 11:00:00 21.3 13 Oeste 19 Oeste 0 -- -- --
2020-06-17 10:00:00 21.9 7 Sur 8 Sur 0 -- -- --
2020-06-17 09:00:00 20.3 3 Sur 5 Sur 0 -- -- --
2020-06-17 08:00:00 18.6 0 Calma 8 Oeste 0 -- -- --
2020-06-17 07:00:00 18.2 5 Oeste 9 Oeste 0 -- -- --
2020-06-17 06:00:00 18.6 5 Oeste 11 Sudoeste 0 -- -- --
2020-06-17 05:00:00 18.7 4 Oeste 10 Sudoeste 0 -- -- --
2020-06-17 04:00:00 19 8 Oeste 12 Sudoeste 0 -- -- --
2020-06-17 03:00:00 19.2 10 Sudoeste 14 Sudoeste 0 -- -- --
2020-06-17 02:00:00 19.4 9 Sudoeste 14 Sudoeste 0 -- -- --
2020-06-17 01:00:00 19.8 12 Sudoeste 25 Sudoeste 0 -- -- --
2020-06-17 00:00:00 19.9 11 Sudoeste 19 Sudoeste 0 -- -- --
2020-06-16 23:00:00 20.2 9 Sudoeste 20 Oeste 0 -- -- --
2020-06-16 22:00:00 20.5 15 Oeste 26 Oeste 0 -- -- --
2020-06-16 21:00:00 22 17 Oeste 32 Oeste 0 -- -- --
2020-06-16 20:00:00 22.9 20 Oeste 36 Oeste 0 -- -- --
2020-06-16 19:00:00 21.6 33 Oeste 42 Oeste 0 -- -- --
2020-06-16 18:00:00 21.9 32 Oeste 43 Oeste 0 -- -- --
2020-06-16 17:00:00 22.5 32 Oeste 42 Oeste 0 -- -- --
2020-06-16 16:00:00 21.7 32 Oeste 43 Oeste 0 -- -- --
2020-06-16 15:00:00 21.6 32 Oeste 45 Oeste 0 -- -- --
2020-06-16 14:00:00 23 24 Oeste 42 Oeste 0 -- -- --
2020-06-16 13:00:00 21.3 31 Oeste 39 Oeste 0 -- -- --
2020-06-16 12:00:00 21.1 29 Oeste 34 Oeste 0 -- -- --
2020-06-16 11:00:00 20.8 24 Oeste 30 Oeste 0 -- -- --
2020-06-16 10:00:00 20.8 6 Sudoeste 12 Sur 0 -- -- --
2020-06-16 09:00:00 19.8 5 Sur 8 Sur 0 -- -- --
2020-06-16 08:00:00 17.6 4 Sudeste 7 Sudeste 0 -- -- --
2020-06-16 07:00:00 16.8 0 Calma 4 Oeste 0 -- -- --
2020-06-16 06:00:00 17.1 3 Nordeste 5 Este 0 -- -- --
2020-06-16 05:00:00 18.1 0 Calma 8 Norte 0 -- -- --
2020-06-16 04:00:00 19 3 Norte 12 Noroeste 0 -- -- --
2020-06-16 03:00:00 19 6 Sudoeste 11 Sur 0 -- -- --
2020-06-16 02:00:00 18.8 8 Sur 13 Sur 0 -- -- --
2020-06-16 01:00:00 19.1 6 Sudoeste 9 Sudoeste 0 -- -- --
2020-06-16 00:00:00 19 4 Sudeste 6 Nordeste 0 -- -- --
2020-06-15 23:00:00 19.3 3 Norte 11 Noroeste 0 -- -- --
2020-06-15 22:00:00 19.9 5 Oeste 19 Noroeste 0 -- -- --
2020-06-15 21:00:00 21.5 10 Noroeste 27 Oeste 0 -- -- --
2020-06-15 20:00:00 22.6 18 Oeste 26 Oeste 0 -- -- --
2020-06-15 19:00:00 24.4 20 Noroeste 27 Oeste 0 -- -- --
2020-06-15 18:00:00 24.1 15 Oeste 31 Oeste 0 -- -- --
2020-06-15 17:00:00 22.4 23 Oeste 35 Oeste 0 -- -- --
2020-06-15 16:00:00 21.3 28 Oeste 33 Oeste 0 -- -- --
2020-06-15 15:00:00 21.4 26 Oeste 31 Oeste 0 -- -- --
2020-06-15 14:00:00 21.5 21 Oeste 27 Oeste 0 -- -- --
2020-06-15 13:00:00 21.2 13 Oeste 18 Oeste 0 -- -- --
2020-06-15 12:00:00 20.7 15 Sudoeste 18 Sudoeste 0 -- -- --
2020-06-15 11:00:00 20.2 14 Oeste 22 Oeste 0 -- -- --
2020-06-15 10:00:00 19.6 16 Oeste 20 Oeste 0 -- -- --
2020-06-15 09:00:00 17.7 2 Sudoeste 5 Nordeste 0 -- -- --
2020-06-15 08:00:00 14.6 3 Nordeste 7 Norte 0 -- -- --
2020-06-15 07:00:00 13.8 5 Norte 9 Norte 0 -- -- --
2020-06-15 06:00:00 13.8 8 Norte 9 Nordeste 0 -- -- --
2020-06-15 05:00:00 16 3 Norte 8 Oeste 0 -- -- --
2020-06-15 04:00:00 18.1 6 Oeste 9 Oeste 0 -- -- --
2020-06-15 03:00:00 17.8 5 Oeste 8 Oeste 0 -- -- --
2020-06-15 02:00:00 18 4 Oeste 6 Oeste 0 -- -- --
2020-06-15 01:00:00 18.2 5 Oeste 13 Oeste 0 -- -- --
2020-06-15 00:00:00 18.4 6 Oeste 12 Oeste 0 -- -- --
2020-06-14 23:00:00 18.9 4 Oeste 11 Noroeste 0 -- -- --
2020-06-14 22:00:00 19.5 9 Noroeste 22 Oeste 0 -- -- --
2020-06-14 21:00:00 21.4 15 Noroeste 26 Noroeste 0 -- -- --
2020-06-14 20:00:00 21.8 18 Oeste 33 Oeste 0 -- -- --
2020-06-14 19:00:00 21.6 24 Oeste 38 Oeste 0 -- -- --
2020-06-14 18:00:00 21.8 29 Oeste 39 Oeste 0 -- -- --
2020-06-14 17:00:00 21.7 32 Oeste 41 Oeste 0 -- -- --
2020-06-14 16:00:00 21.7 34 Oeste 40 Oeste 0 -- -- --
2020-06-14 15:00:00 21.7 26 Oeste 32 Oeste 0 -- -- --
2020-06-14 14:00:00 21.2 24 Oeste 34 Oeste 0 -- -- --
2020-06-14 13:00:00 20.8 28 Oeste 36 Oeste 0 -- -- --
2020-06-14 12:00:00 20.4 29 Oeste 35 Oeste 0 -- -- --
2020-06-14 11:00:00 20.1 26 Oeste 33 Oeste 0 -- -- --
2020-06-14 10:00:00 20 14 Oeste 23 Noroeste 0 -- -- --
2020-06-14 09:00:00 18.8 4 Noroeste 14 Oeste 0 -- -- --
2020-06-14 08:00:00 15.7 3 Oeste 5 Este 0 -- -- --
2020-06-14 07:00:00 14.8 4 Noroeste 8 Noroeste 0 -- -- --
2020-06-14 06:00:00 16.7 0 Calma -- -- 0 -- -- --
2020-06-14 05:00:00 16.7 0 Calma 0 Calma 0 -- -- --
2020-06-14 04:00:00 17.4 0 Calma 8 Este 0 -- -- --
2020-06-14 03:00:00 18 4 Nordeste 7 Norte 0 -- -- --
2020-06-14 02:00:00 18.4 0 Calma 8 Noroeste 0 -- -- --
2020-06-14 01:00:00 18.6 4 Nordeste 10 Noroeste 0 -- -- --
2020-06-14 00:00:00 18.4 3 Noroeste 8 Norte 0 -- -- --
2020-06-13 23:00:00 18.8 4 Noroeste 12 Noroeste 0 -- -- --
2020-06-13 22:00:00 19.3 5 Norte 21 Noroeste 0 -- -- --
2020-06-13 21:00:00 20.7 13 Noroeste 21 Noroeste 0 -- -- --
2020-06-13 20:00:00 22.3 15 Oeste 28 Oeste 0 -- -- --
2020-06-13 19:00:00 23 18 Oeste 33 Oeste 0 -- -- --
2020-06-13 18:00:00 21.5 27 Oeste 36 Oeste 0 -- -- --
2020-06-13 17:00:00 21.3 27 Oeste 38 Oeste 0 -- -- --
2020-06-13 16:00:00 21 30 Oeste 37 Oeste 0 -- -- --
2020-06-13 15:00:00 20.7 30 Oeste 35 Oeste 0 -- -- --
2020-06-13 14:00:00 20.4 29 Oeste 34 Oeste 0 -- -- --
2020-06-13 13:00:00 20.4 25 Oeste 30 Oeste 0 -- -- --
2020-06-13 12:00:00 20.5 20 Oeste 25 Oeste 0 -- -- --
2020-06-13 11:00:00 20.6 12 Sudoeste 15 Sudoeste 0 -- -- --
2020-06-13 10:00:00 19.5 8 Nordeste 14 Nordeste 0 -- -- --
2020-06-13 09:00:00 18.1 3 Nordeste 10 Este 0 -- -- --
2020-06-13 08:00:00 16.3 4 Norte 10 Norte 0 -- -- --
2020-06-13 07:00:00 16.1 4 Nordeste 8 Este 0 -- -- --
2020-06-13 06:00:00 16.4 5 Nordeste 12 Noroeste 0 -- -- --
2020-06-13 05:00:00 17.8 8 Noroeste 14 Noroeste 0 -- -- --
2020-06-13 04:00:00 18.3 9 Noroeste 17 Noroeste 0 -- -- --
2020-06-13 03:00:00 18.4 11 Noroeste 16 Noroeste 0 -- -- --
2020-06-13 02:00:00 19 10 Oeste 23 Noroeste 0 -- -- --
2020-06-13 01:00:00 19.2 12 Noroeste 26 Noroeste 0 -- -- --
2020-06-13 00:00:00 19.3 17 Oeste 26 Oeste 0 -- -- --
2020-06-12 23:00:00 19.2 18 Oeste 32 Oeste 0 -- -- --
2020-06-12 22:00:00 19.2 22 Oeste 32 Oeste 0 -- -- --
2020-06-12 21:00:00 19.3 23 Oeste 30 Oeste 0 -- -- --
2020-06-12 20:00:00 19.7 24 Oeste 30 Oeste 0 -- -- --
2020-06-12 19:00:00 20.5 22 Oeste 31 Oeste 0 -- -- --
2020-06-12 18:00:00 20.7 22 Oeste 31 Oeste 0 -- -- --
2020-06-12 17:00:00 20.3 22 Oeste 32 Oeste 0 -- -- --
2020-06-12 16:00:00 19.9 24 Oeste 39 Oeste 0 -- -- --
2020-06-12 15:00:00 20.5 26 Oeste 33 Sudoeste 0 -- -- --
2020-06-12 14:00:00 22 18 Oeste 27 Oeste 0 -- -- --
2020-06-12 13:00:00 20.9 16 Oeste 24 Noroeste 0 -- -- --
2020-06-12 12:00:00 20 13 Noroeste 20 Oeste 0 -- -- --
2020-06-12 11:00:00 18.5 9 Noroeste 16 Norte 0 -- -- --
2020-06-12 10:00:00 17.4 9 Noroeste 19 Norte 0 -- -- --
2020-06-12 09:00:00 16.8 2 Este 6 Nordeste 0 -- -- --
2020-06-12 08:00:00 16.2 4 Norte 28 Noroeste 0.4 -- -- --
2020-06-12 07:00:00 17.3 6 Oeste 13 Oeste 0 -- -- --
2020-06-12 06:00:00 17 9 Oeste 56 Oeste 0 -- -- --
2020-06-12 05:00:00 18.3 32 Oeste 43 Oeste 0.2 -- -- --
2020-06-12 04:00:00 18.4 28 Oeste 40 Oeste 0 -- -- --
2020-06-12 03:00:00 18.1 27 Oeste 45 Oeste 0.2 -- -- --
2020-06-12 02:00:00 17.6 24 Oeste 42 Oeste 0.8 -- -- --
2020-06-12 01:00:00 18.4 29 Sudoeste 49 Oeste 0 -- -- --
2020-06-12 00:00:00 19.3 28 Oeste 44 Oeste 0 -- -- --
2020-06-11 23:00:00 18.6 33 Oeste 50 Oeste 0 -- -- --
2020-06-11 22:00:00 19.4 33 Oeste 48 Oeste 0 -- -- --
2020-06-11 21:00:00 19.7 30 Oeste 41 Oeste 0 -- -- --
2020-06-11 20:00:00 20 31 Oeste 41 Oeste 0 -- -- --
2020-06-11 19:00:00 20.6 32 Oeste 42 Oeste 0 -- -- --
2020-06-11 18:00:00 20.5 28 Oeste 42 Oeste 0 -- -- --
2020-06-11 17:00:00 20.6 33 Oeste 44 Oeste 0 -- -- --
2020-06-11 16:00:00 20.4 30 Oeste 39 Oeste 0 -- -- --
2020-06-11 15:00:00 21 27 Oeste 36 Oeste 0 -- -- --
2020-06-11 14:00:00 21 26 Sudoeste 35 Oeste 0 -- -- --
2020-06-11 13:00:00 20.4 22 Oeste 37 Oeste 0 -- -- --
2020-06-11 12:00:00 19.6 28 Sudoeste 42 Sudoeste 0 -- -- --
2020-06-11 11:00:00 19.3 32 Oeste 40 Oeste 0 -- -- --
2020-06-11 10:00:00 19 27 Oeste 40 Oeste 0 -- -- --
2020-06-11 09:00:00 18.7 25 Oeste 37 Oeste 0 -- -- --
2020-06-11 08:00:00 18.7 30 Oeste 39 Oeste 0 -- -- --
2020-06-11 07:00:00 18.6 26 Sudoeste 33 Sudoeste 0 -- -- --
2020-06-11 06:00:00 18.5 24 Oeste 31 Oeste 0 -- -- --
2020-06-11 05:00:00 18.7 24 Oeste 30 Oeste 0 -- -- --
2020-06-11 04:00:00 19 21 Oeste 26 Oeste 0 -- -- --
2020-06-11 03:00:00 19.1 22 Sudoeste 26 Sudoeste 0 -- -- --
2020-06-11 02:00:00 18.6 8 Oeste 14 Sur 0 -- -- --
2020-06-11 01:00:00 18.3 2 Oeste 6 Oeste 0 -- -- --
2020-06-11 00:00:00 18.6 0 Calma 5 Sudoeste 0 -- -- --
2020-06-10 23:00:00 19.3 5 Oeste 11 Oeste 0 -- -- --
2020-06-10 22:00:00 20 8 Oeste 21 Oeste 0 -- -- --
2020-06-10 21:00:00 21.2 15 Oeste 25 Oeste 0 -- -- --
2020-06-10 20:00:00 22.1 19 Oeste 24 Oeste 0 -- -- --
2020-06-10 19:00:00 22.8 19 Oeste 27 Oeste 0 -- -- --
2020-06-10 18:00:00 22.1 22 Oeste 30 Oeste 0 -- -- --
2020-06-10 17:00:00 22.6 22 Oeste 26 Sudoeste 0 -- -- --
2020-06-10 16:00:00 23.2 14 Sudoeste 18 Sudoeste 0 -- -- --
2020-06-10 15:00:00 23 14 Sudoeste 18 Sudoeste 0 -- -- --
2020-06-10 14:00:00 22.7 15 Sudoeste 18 Sudoeste 0 -- -- --
2020-06-10 13:00:00 22.5 14 Sudoeste -- -- -- -- -- 47
2020-06-10 12:00:00 -- 15 Sudoeste 18 Sudoeste 0 -- -- --
2020-06-10 11:00:00 20.9 14 Sudoeste 20 Sudoeste 0 -- -- 56
2020-06-10 10:00:00 19.4 17 Sudoeste 20 Sudoeste 0 -- -- 60
2020-06-10 09:00:00 15.9 6 Norte 9 Norte 0 -- -- 60
2020-06-10 08:00:00 14.2 6 Norte 9 Nordeste 0 -- -- 62
2020-06-10 07:00:00 14 6 Norte 9 Nordeste 0 -- -- 62
2020-06-10 06:00:00 14.2 6 Norte 10 Norte 0 -- -- 65
2020-06-10 05:00:00 14.5 7 Norte 10 Norte 0 -- -- 61
2020-06-10 04:00:00 15.7 0 Calma 4 Nordeste 0 -- -- 60
2020-06-10 03:00:00 15.7 4 Nordeste 6 Nordeste 0 -- -- 60
2020-06-10 02:00:00 16.1 5 Norte 9 Nordeste 0 -- -- 59
2020-06-10 01:00:00 16.4 6 Nordeste 9 Nordeste 0 -- -- 58
2020-06-10 00:00:00 17.7 4 Nordeste 5 Nordeste 0 -- -- 53